Time;durP1;ratioP1;P1;durP2;ratioP2;P2;SDS_P1;SDS_P2;PMS_P1;PMS_P2;Temp;Humidity;BMP_temperature;BMP_pressure;BME280_temperature;BME280_humidity;BME280_pressure;Samples;Min_cycle;Max_cycle;Signal;HPM_P1;HPM_P2
2022/06/06 00:02:05;;;;;;;6.13;4.70;;;23.10;63.60;;;;;;5071785;28;20052;-72
2022/06/06 00:04:31;;;;;;;6.57;5.53;;;23.10;63.60;;;;;;5058780;28;20060;-72
2022/06/06 00:06:58;;;;;;;6.20;5.22;;;23.10;63.70;;;;;;5054608;28;20110;-72
2022/06/06 00:09:26;;;;;;;6.25;4.93;;;23.10;63.70;;;;;;5067877;28;20040;-72
2022/06/06 00:11:54;;;;;;;5.78;5.22;;;23.10;63.70;;;;;;5070942;28;20025;-72
2022/06/06 00:14:20;;;;;;;5.75;5.13;;;23.10;63.80;;;;;;5070992;28;20055;-72
2022/06/06 00:16:45;;;;;;;5.60;5.03;;;23.00;63.70;;;;;;5063832;28;20496;-72
2022/06/06 00:19:12;;;;;;;6.15;5.40;;;23.00;63.80;;;;;;5053397;28;20055;-73
2022/06/06 00:21:38;;;;;;;7.15;5.30;;;23.10;63.90;;;;;;5059487;28;20499;-73
2022/06/06 00:24:05;;;;;;;5.35;4.85;;;23.00;63.90;;;;;;5061096;28;20111;-72
2022/06/06 00:26:32;;;;;;;5.93;5.30;;;23.00;64.00;;;;;;5058099;28;20441;-72
2022/06/06 00:28:58;;;;;;;5.72;5.13;;;23.00;64.00;;;;;;5053125;28;20377;-72
2022/06/06 00:36:55;;;;;;;7.25;5.40;;;23.00;64.20;;;;;;5057160;28;20530;-64
2022/06/06 00:39:20;;;;;;;7.40;5.03;;;22.90;64.10;;;;;;5053028;28;20037;-65
2022/06/06 00:41:49;;;;;;;7.00;5.72;;;23.00;64.30;;;;;;5069623;28;20108;-64
2022/06/06 00:44:17;;;;;;;5.97;5.38;;;23.00;64.40;;;;;;5061813;28;20052;-64
2022/06/06 00:46:47;;;;;;;6.18;5.22;;;23.00;64.40;;;;;;5052541;28;20040;-64
2022/06/06 00:49:33;;;;;;;5.35;4.85;;;23.00;64.60;;;;;;5052697;28;20032;-64
2022/06/06 00:51:59;;;;;;;5.75;5.25;;;23.00;65.00;;;;;;5070305;28;20025;-64
2022/06/06 00:54:25;;;;;;;6.13;5.07;;;23.00;65.40;;;;;;5072281;28;20035;-64
2022/06/06 00:56:56;;;;;;;5.93;4.80;;;22.90;65.80;;;;;;5070145;28;20029;-65
2022/06/06 00:59:27;;;;;;;7.50;6.00;;;22.90;66.50;;;;;;5071686;28;20066;-64
2022/06/06 01:01:55;;;;;;;5.90;5.35;;;22.90;67.10;;;;;;5053224;28;20017;-65
2022/06/06 01:04:23;;;;;;;5.68;5.10;;;22.90;67.50;;;;;;5052166;28;20033;-65
2022/06/06 01:06:49;;;;;;;6.47;5.88;;;22.90;68.00;;;;;;5053856;28;20057;-65
2022/06/06 01:09:16;;;;;;;6.80;6.10;;;22.80;68.10;;;;;;5052110;28;20072;-65
2022/06/06 01:11:48;;;;;;;6.82;5.65;;;22.80;68.40;;;;;;5067355;28;22224;-65
2022/06/06 01:14:18;;;;;;;8.32;6.50;;;22.80;68.80;;;;;;5070216;28;20565;-63
2022/06/06 01:17:14;;;;;;;6.00;5.38;;;22.80;69.20;;;;;;5053617;28;20124;-64
2022/06/06 01:19:58;;;;;;;6.32;5.65;;;22.80;69.40;;;;;;5054340;28;20045;-64
2022/06/06 01:22:35;;;;;;;7.57;5.88;;;22.70;69.80;;;;;;5051620;28;20091;-64
2022/06/06 01:25:26;;;;;;;6.65;6.05;;;22.70;70.30;;;;;;5052531;28;20115;-65
2022/06/06 01:28:16;;;;;;;7.13;6.43;;;22.70;70.70;;;;;;5052266;28;20029;-64
2022/06/06 01:30:46;;;;;;;6.68;5.68;;;22.60;70.70;;;;;;5063028;28;20028;-65
2022/06/06 01:33:14;;;;;;;6.70;6.00;;;22.60;71.00;;;;;;5057281;28;20025;-65
2022/06/06 01:35:43;;;;;;;6.70;6.00;;;22.60;71.30;;;;;;5068695;28;20388;-64
2022/06/06 01:38:11;;;;;;;7.03;6.32;;;22.50;71.40;;;;;;5069717;28;20115;-64
2022/06/06 01:40:40;;;;;;;6.53;5.93;;;22.50;71.40;;;;;;5068845;28;20039;-64
2022/06/06 01:43:14;;;;;;;6.65;5.95;;;22.50;71.80;;;;;;5069021;28;20024;-64
2022/06/06 01:45:49;;;;;;;6.25;5.65;;;22.50;72.00;;;;;;5060343;28;20120;-64
2022/06/06 01:48:17;;;;;;;6.90;6.20;;;22.40;71.90;;;;;;5071198;28;20436;-64
2022/06/06 01:50:44;;;;;;;6.88;6.07;;;22.40;72.00;;;;;;5061382;28;20057;-64
2022/06/06 01:53:13;;;;;;;5.82;5.32;;;22.40;72.30;;;;;;5058974;28;20360;-64
2022/06/06 01:55:42;;;;;;;6.95;6.28;;;22.40;72.70;;;;;;5069987;28;20039;-64
2022/06/06 01:58:11;;;;;;;6.78;6.10;;;22.40;73.00;;;;;;5067981;28;20169;-64
2022/06/06 02:00:39;;;;;;;6.97;6.00;;;22.40;73.10;;;;;;5067802;28;20032;-64
2022/06/06 02:03:06;;;;;;;7.72;6.40;;;22.30;73.30;;;;;;5065681;28;20033;-64
2022/06/06 02:05:31;;;;;;;6.53;5.90;;;22.30;73.30;;;;;;5051285;28;20415;-65
2022/06/06 02:07:58;;;;;;;7.78;6.13;;;22.30;73.40;;;;;;5051347;28;20048;-64
2022/06/06 02:10:24;;;;;;;8.00;7.18;;;22.30;73.60;;;;;;5051071;28;20031;-64
2022/06/06 02:12:49;;;;;;;7.78;6.45;;;22.30;73.80;;;;;;5051828;28;20040;-64
2022/06/06 02:15:17;;;;;;;7.38;6.18;;;22.30;73.80;;;;;;5051264;28;20385;-64
2022/06/06 02:17:43;;;;;;;7.10;6.47;;;22.30;74.10;;;;;;5067186;28;20024;-65
2022/06/06 02:20:11;;;;;;;7.75;7.05;;;22.30;74.00;;;;;;5069335;28;20033;-65
2022/06/06 02:22:37;;;;;;;9.82;6.97;;;22.20;74.00;;;;;;5052634;28;20033;-63
2022/06/06 02:25:06;;;;;;;7.60;6.20;;;22.30;74.10;;;;;;5049961;28;20025;-65
2022/06/06 02:27:32;;;;;;;7.80;6.05;;;22.30;74.00;;;;;;5051528;28;20041;-64
2022/06/06 02:29:58;;;;;;;8.15;6.22;;;22.30;73.90;;;;;;5054256;28;20116;-64
2022/06/06 02:32:23;;;;;;;8.13;6.93;;;22.30;73.70;;;;;;5055328;28;20531;-64
2022/06/06 02:34:49;;;;;;;7.53;6.80;;;22.30;73.80;;;;;;5055847;28;20170;-64
2022/06/06 02:37:14;;;;;;;7.78;6.35;;;22.30;73.80;;;;;;5058496;28;20032;-65
2022/06/06 02:39:40;;;;;;;6.60;6.00;;;22.30;74.40;;;;;;5055306;28;20044;-65
2022/06/06 02:42:05;;;;;;;7.07;6.38;;;22.20;74.00;;;;;;5066652;28;20044;-65
2022/06/06 02:44:31;;;;;;;7.80;7.10;;;22.30;74.40;;;;;;5072400;28;20024;-65
2022/06/06 02:46:57;;;;;;;8.00;7.30;;;22.30;75.00;;;;;;5065249;28;20388;-63
2022/06/06 02:49:22;;;;;;;9.38;8.35;;;22.30;75.80;;;;;;5067703;28;20036;-64
2022/06/06 02:51:48;;;;;;;9.27;8.38;;;22.20;77.20;;;;;;5063647;28;20032;-64
2022/06/06 02:54:14;;;;;;;9.45;8.55;;;22.10;78.00;;;;;;5072699;28;20443;-64
2022/06/06 02:56:39;;;;;;;12.18;8.00;;;22.10;79.00;;;;;;5070612;28;20090;-64
2022/06/06 02:59:06;;;;;;;10.27;8.45;;;22.00;79.50;;;;;;5054539;28;20021;-64
2022/06/06 03:01:32;;;;;;;10.73;9.15;;;21.90;80.50;;;;;;5060693;28;20024;-64
2022/06/06 03:03:58;;;;;;;10.32;9.27;;;21.90;81.30;;;;;;5054618;28;20089;-64
2022/06/06 03:06:58;;;;;;;9.40;8.50;;;21.80;82.40;;;;;;5054180;28;20025;-64
2022/06/06 03:10:01;;;;;;;11.82;8.25;;;21.80;82.50;;;;;;5065533;28;20489;-65
2022/06/06 03:13:07;;;;;;;9.95;9.00;;;21.70;83.10;;;;;;5058400;28;20059;-65
2022/06/06 03:20:46;;;;;;;9.80;8.63;;;21.70;84.20;;;;;;5049329;28;20523;-65
2022/06/06 03:21:40;;;;;;;11.38;9.23;;;21.50;86.50;;;;;;5060731;28;20516;-65
2022/06/06 03:24:39;;;;;;;10.05;9.07;;;21.50;87.40;;;;;;5074222;28;20024;-65
2022/06/06 03:27:36;;;;;;;11.20;10.00;;;21.50;88.30;;;;;;5055310;28;20465;-65
2022/06/06 03:30:28;;;;;;;10.65;9.65;;;21.40;88.90;;;;;;5054474;28;20029;-64
2022/06/06 03:33:22;;;;;;;11.82;10.73;;;21.40;89.90;;;;;;5054395;28;20031;-64
2022/06/06 03:36:09;;;;;;;11.45;10.25;;;21.30;90.40;;;;;;5054554;28;20064;-64
2022/06/06 03:38:44;;;;;;;11.32;10.07;;;21.30;90.80;;;;;;5054175;28;20210;-65
2022/06/06 03:41:26;;;;;;;13.13;11.40;;;21.30;91.40;;;;;;5057073;28;20024;-65
2022/06/06 03:44:09;;;;;;;15.30;11.70;;;21.30;91.80;;;;;;5062956;28;20029;-65
2022/06/06 03:46:44;;;;;;;13.13;11.65;;;21.20;92.40;;;;;;5068957;28;20539;-65
2022/06/06 03:49:17;;;;;;;11.93;10.73;;;21.20;92.80;;;;;;5060804;28;20048;-64
2022/06/06 03:51:48;;;;;;;12.30;10.98;;;21.20;93.10;;;;;;5054253;28;20029;-64
2022/06/06 03:54:45;;;;;;;12.38;11.23;;;21.20;93.30;;;;;;5053592;28;20025;-64
2022/06/06 03:57:17;;;;;;;12.40;11.10;;;21.10;93.40;;;;;;5056128;28;20120;-64
2022/06/06 03:59:46;;;;;;;12.43;11.23;;;21.10;93.60;;;;;;5069918;28;20028;-64
2022/06/06 04:02:17;;;;;;;14.63;12.18;;;21.10;93.90;;;;;;5070225;28;20111;-65
2022/06/06 04:04:45;;;;;;;14.52;11.02;;;21.00;94.30;;;;;;5073452;28;20036;-65
2022/06/06 04:07:11;;;;;;;13.43;11.48;;;21.00;94.40;;;;;;5059914;28;20373;-66
2022/06/06 04:09:37;;;;;;;13.15;11.77;;;21.00;94.60;;;;;;5053792;28;20040;-65
2022/06/06 04:12:36;;;;;;;12.35;11.07;;;21.00;94.80;;;;;;5054583;28;20025;-65
2022/06/06 04:15:20;;;;;;;12.77;11.48;;;20.90;94.90;;;;;;5053177;28;20040;-65
2022/06/06 04:18:00;;;;;;;12.75;11.45;;;20.90;95.20;;;;;;5058518;28;20033;-65
2022/06/06 04:20:37;;;;;;;13.98;11.02;;;20.90;95.40;;;;;;5069611;28;20025;-65
2022/06/06 04:23:44;;;;;;;12.57;11.38;;;20.90;95.70;;;;;;5059061;28;20025;-65
2022/06/06 04:26:14;;;;;;;11.60;10.48;;;20.80;95.70;;;;;;5053613;28;20025;-65
2022/06/06 04:28:57;;;;;;;13.15;11.48;;;20.80;95.90;;;;;;5058294;28;20036;-65
2022/06/06 04:31:51;;;;;;;11.63;10.50;;;20.80;96.20;;;;;;5064942;28;20040;-65
2022/06/06 04:34:27;;;;;;;12.95;11.57;;;20.70;96.30;;;;;;5053268;28;20086;-65
2022/06/06 04:37:07;;;;;;;12.70;10.82;;;20.70;96.50;;;;;;5061633;28;20028;-65
2022/06/06 04:39:49;;;;;;;14.52;11.30;;;20.70;96.70;;;;;;5069820;28;20060;-65
2022/06/06 04:42:28;;;;;;;13.30;11.90;;;20.70;96.70;;;;;;5064588;28;20028;-65
2022/06/06 04:45:14;;;;;;;12.05;10.80;;;20.70;97.00;;;;;;5056833;28;20044;-65
2022/06/06 04:47:41;;;;;;;13.10;10.93;;;20.70;97.10;;;;;;5067967;28;20048;-66
2022/06/06 04:50:13;;;;;;;12.52;10.82;;;20.70;97.20;;;;;;5066658;28;20047;-65
2022/06/06 04:52:41;;;;;;;11.45;10.25;;;20.60;97.40;;;;;;5051685;28;20492;-66
2022/06/06 04:55:09;;;;;;;12.10;11.00;;;20.60;97.40;;;;;;5052829;28;20021;-65
2022/06/06 04:57:37;;;;;;;12.15;10.90;;;20.60;97.60;;;;;;5062299;28;20032;-65
2022/06/06 05:00:05;;;;;;;13.45;12.15;;;20.60;97.80;;;;;;5058202;28;20029;-65
2022/06/06 05:02:33;;;;;;;12.60;11.30;;;20.70;97.90;;;;;;5065882;28;20029;-65
2022/06/06 05:04:58;;;;;;;13.05;11.60;;;20.60;98.10;;;;;;5062915;28;20039;-65
2022/06/06 05:07:39;;;;;;;12.43;11.13;;;20.60;98.10;;;;;;5065543;28;20048;-65
2022/06/06 05:10:16;;;;;;;13.70;12.38;;;20.70;98.30;;;;;;5052408;28;20388;-65
2022/06/06 05:13:05;;;;;;;12.30;11.07;;;20.60;98.30;;;;;;5066827;28;20025;-65
2022/06/06 05:15:52;;;;;;;13.55;11.75;;;20.60;98.30;;;;;;5051430;28;20040;-70
2022/06/06 05:18:54;;;;;;;12.20;10.65;;;20.60;98.50;;;;;;5053649;28;20021;-71
2022/06/06 05:21:28;;;;;;;10.90;9.80;;;20.60;98.50;;;;;;5052758;28;20118;-69
2022/06/06 05:24:06;;;;;;;12.13;10.90;;;20.70;98.60;;;;;;5065385;28;20020;-67
2022/06/06 05:26:54;;;;;;;11.45;10.25;;;20.70;98.70;;;;;;5069310;28;20028;-66
2022/06/06 05:29:56;;;;;;;11.73;10.57;;;20.70;98.70;;;;;;5071783;28;20048;-66
2022/06/06 05:32:59;;;;;;;11.60;10.40;;;20.70;98.70;;;;;;5062738;28;20053;-68
2022/06/06 05:36:10;;;;;;;12.00;10.80;;;20.70;98.80;;;;;;5069782;28;20032;-68
2022/06/06 05:38:54;;;;;;;11.57;10.43;;;20.70;98.80;;;;;;5069545;28;20375;-68
2022/06/06 05:41:38;;;;;;;10.73;9.70;;;20.70;99.00;;;;;;5052150;28;20029;-66
2022/06/06 05:44:37;;;;;;;12.07;10.45;;;20.80;99.10;;;;;;5051928;28;20029;-68
2022/06/06 05:47:02;;;;;;;10.65;9.65;;;20.80;99.20;;;;;;5062143;28;20029;-69
2022/06/06 05:49:54;;;;;;;10.98;9.88;;;20.90;99.40;;;;;;5065864;28;20024;-68
2022/06/06 05:52:20;;;;;;;11.50;10.40;;;21.00;99.50;;;;;;5070217;28;20043;-68
2022/06/06 05:54:54;;;;;;;11.55;10.35;;;21.10;99.60;;;;;;5059695;28;20029;-76
2022/06/06 05:57:51;;;;;;;10.63;9.55;;;21.10;99.60;;;;;;5057249;28;20067;-77
2022/06/06 06:00:23;;;;;;;11.35;10.25;;;21.20;99.50;;;;;;5051778;28;20025;-77
2022/06/06 06:03:15;;;;;;;11.30;10.27;;;21.30;99.80;;;;;;5059198;28;20111;-72
2022/06/06 06:05:40;;;;;;;11.25;10.15;;;21.40;99.80;;;;;;5067988;28;20029;-78
2022/06/06 06:08:23;;;;;;;10.70;9.70;;;21.50;99.90;;;;;;5058229;28;20056;-77
2022/06/06 06:11:12;;;;;;;11.15;10.15;;;21.70;99.90;;;;;;5052427;28;20029;-75
2022/06/06 06:14:01;;;;;;;10.23;9.13;;;21.90;99.90;;;;;;5054970;28;20037;-75
2022/06/06 06:16:31;;;;;;;11.02;9.93;;;22.10;99.80;;;;;;5060588;28;20021;-78
2022/06/06 06:19:12;;;;;;;10.75;9.65;;;22.20;99.90;;;;;;5051321;28;20033;-75
2022/06/06 06:21:59;;;;;;;11.20;10.10;;;22.30;99.60;;;;;;5051389;28;20439;-75
2022/06/06 06:24:30;;;;;;;10.77;9.75;;;22.40;99.30;;;;;;5071193;28;20097;-75
2022/06/06 06:26:57;;;;;;;10.55;9.55;;;22.50;99.30;;;;;;5066368;28;20051;-76
2022/06/06 06:29:24;;;;;;;10.10;9.18;;;22.60;99.10;;;;;;5058049;28;20037;-75
2022/06/06 06:32:14;;;;;;;11.43;9.65;;;22.70;98.80;;;;;;5064903;28;20060;-76
2022/06/06 06:34:49;;;;;;;12.20;11.02;;;22.80;98.50;;;;;;5058368;28;20033;-77
2022/06/06 06:38:01;;;;;;;9.52;8.52;;;22.80;98.20;;;;;;5051055;28;20558;-76
2022/06/06 06:41:00;;;;;;;8.90;7.75;;;22.80;97.80;;;;;;5071296;28;20275;-77
2022/06/06 06:43:47;;;;;;;8.02;6.88;;;22.90;97.10;;;;;;5053485;28;20119;-78
2022/06/06 06:46:19;;;;;;;7.63;6.90;;;22.90;96.50;;;;;;5065670;28;20427;-76
2022/06/06 06:48:48;;;;;;;7.05;6.35;;;22.90;96.40;;;;;;5055830;28;20097;-73
2022/06/06 06:51:40;;;;;;;7.00;6.15;;;23.00;96.40;;;;;;5062494;28;20031;-77
2022/06/06 06:54:15;;;;;;;6.43;5.82;;;23.00;96.20;;;;;;5064802;28;20107;-77
2022/06/06 06:56:57;;;;;;;7.63;5.75;;;23.00;95.60;;;;;;5062835;28;20073;-76
2022/06/06 06:59:50;;;;;;;6.82;6.22;;;23.00;95.40;;;;;;5062316;28;20020;-76
2022/06/06 07:09:03;;;;;;;6.57;5.90;;;22.90;94.60;;;;;;5051776;28;20049;-76
2022/06/06 07:11:47;;;;;;;6.32;5.72;;;22.90;94.20;;;;;;5057921;28;20017;-75
2022/06/06 07:14:35;;;;;;;7.65;6.10;;;22.80;94.10;;;;;;5059450;28;20044;-76
2022/06/06 07:17:03;;;;;;;7.72;6.60;;;22.80;94.10;;;;;;5072955;28;20037;-75
2022/06/06 07:19:34;;;;;;;7.13;6.15;;;22.80;93.90;;;;;;5070167;28;20024;-76
2022/06/06 07:22:02;;;;;;;8.38;7.25;;;22.80;93.80;;;;;;5072655;28;20079;-76
2022/06/06 07:24:29;;;;;;;9.63;7.68;;;22.80;93.80;;;;;;5069025;28;20021;-76
2022/06/06 07:26:56;;;;;;;7.75;6.95;;;22.80;93.60;;;;;;5058068;28;20040;-76
2022/06/06 07:29:22;;;;;;;8.02;7.18;;;22.70;93.50;;;;;;5056749;28;20102;-76
2022/06/06 07:32:19;;;;;;;9.25;7.55;;;22.80;93.70;;;;;;5059583;28;20489;-77
2022/06/06 07:34:44;;;;;;;7.45;6.75;;;22.70;93.50;;;;;;5070433;28;20040;-76
2022/06/06 07:37:18;;;;;;;6.78;5.85;;;22.70;93.30;;;;;;5069972;28;20581;-76
2022/06/06 07:39:58;;;;;;;8.40;6.33;;;22.80;93.00;;;;;;5063416;28;20033;-76
2022/06/06 07:42:39;;;;;;;7.45;5.78;;;22.80;92.80;;;;;;5071189;28;20037;-76
2022/06/06 07:45:09;;;;;;;6.63;5.80;;;22.80;92.60;;;;;;5062487;28;20088;-77
2022/06/06 07:47:56;;;;;;;6.45;5.82;;;22.80;92.50;;;;;;5058244;28;20040;-77
2022/06/06 07:50:33;;;;;;;6.50;5.75;;;22.80;92.60;;;;;;5073139;28;20107;-75
2022/06/06 07:53:06;;;;;;;6.50;5.47;;;22.80;92.50;;;;;;5069326;28;20024;-75
2022/06/06 07:55:55;;;;;;;6.40;5.25;;;22.90;92.50;;;;;;5072577;28;20021;-77
2022/06/06 07:58:32;;;;;;;7.40;5.65;;;22.90;92.30;;;;;;5070501;28;20089;-77
2022/06/06 08:01:09;;;;;;;7.13;5.40;;;22.90;92.00;;;;;;5069741;28;20024;-72
2022/06/06 08:03:47;;;;;;;6.22;5.63;;;23.00;92.00;;;;;;5061633;28;20048;-82
2022/06/06 08:06:19;;;;;;;7.03;6.10;;;23.00;91.60;;;;;;5072795;28;20046;-79
2022/06/06 08:09:27;;;;;;;6.15;5.28;;;23.10;91.50;;;;;;5052359;28;20141;-75
2022/06/06 08:12:08;;;;;;;12.18;5.80;;;23.10;91.50;;;;;;5058407;28;20040;-76
2022/06/06 08:14:52;;;;;;;5.72;5.13;;;23.20;91.50;;;;;;5051989;28;20524;-79
2022/06/06 08:17:50;;;;;;;5.68;5.07;;;23.30;91.30;;;;;;5055766;28;20420;-83
2022/06/06 08:20:36;;;;;;;5.53;5.03;;;23.40;91.20;;;;;;5067259;28;20040;-78
2022/06/06 08:23:04;;;;;;;6.88;4.88;;;23.40;91.00;;;;;;5057738;28;20433;-78
2022/06/06 08:25:35;;;;;;;5.78;5.10;;;23.50;90.80;;;;;;5065896;28;20029;-74
2022/06/06 08:28:02;;;;;;;5.32;4.38;;;23.70;90.90;;;;;;5070751;28;20068;-75
2022/06/06 08:30:29;;;;;;;5.20;4.70;;;23.80;90.80;;;;;;5061616;28;20484;-73
2022/06/06 08:32:55;;;;;;;5.70;4.95;;;23.80;90.60;;;;;;5055913;28;20029;-77
2022/06/06 08:35:23;;;;;;;5.03;4.45;;;24.00;90.40;;;;;;5067869;28;20047;-75
2022/06/06 08:38:16;;;;;;;5.97;5.10;;;24.10;90.20;;;;;;5064915;28;20078;-75
2022/06/06 08:41:13;;;;;;;4.63;4.15;;;24.20;89.80;;;;;;5068373;28;20058;-77
2022/06/06 08:44:02;;;;;;;6.68;4.65;;;24.30;89.00;;;;;;5066827;28;20353;-71
2022/06/06 08:46:40;;;;;;;5.68;4.80;;;24.40;88.60;;;;;;5063510;28;20025;-73
2022/06/06 08:52:28;;;;;;;5.68;4.78;;;24.50;87.70;;;;;;5065924;28;20040;-76
2022/06/06 08:55:08;;;;;;;4.90;4.03;;;24.70;88.00;;;;;;5070596;28;20522;-71
2022/06/06 08:57:37;;;;;;;4.63;4.13;;;24.70;87.10;;;;;;5069423;28;20430;-70
2022/06/06 09:00:30;;;;;;;5.43;4.30;;;24.80;86.10;;;;;;5075563;28;20488;-69
2022/06/06 09:03:39;;;;;;;6.47;4.18;;;24.90;85.70;;;;;;5068663;28;20559;-69
2022/06/06 09:06:19;;;;;;;4.88;3.50;;;24.90;84.70;;;;;;5050871;28;20484;-69
2022/06/06 09:09:22;;;;;;;4.78;3.97;;;25.00;84.80;;;;;;5069585;28;20530;-69
2022/06/06 09:12:12;;;;;;;5.07;3.88;;;25.10;83.20;;;;;;5054762;28;20522;-69
2022/06/06 09:14:46;;;;;;;5.85;4.13;;;25.10;82.30;;;;;;5064244;28;20017;-69
2022/06/06 09:17:35;;;;;;;3.95;3.55;;;25.20;81.70;;;;;;5060100;28;20056;-68
2022/06/06 09:20:25;;;;;;;5.30;3.80;;;25.30;82.00;;;;;;5061812;28;20033;-68
2022/06/06 09:23:21;;;;;;;5.55;3.70;;;25.40;82.00;;;;;;5062857;28;20024;-66
2022/06/06 09:26:09;;;;;;;4.60;3.33;;;25.50;82.00;;;;;;5061402;28;20036;-68
2022/06/06 09:28:37;;;;;;;4.65;4.10;;;25.60;81.50;;;;;;5057501;28;20036;-68
2022/06/06 09:31:49;;;;;;;4.40;3.78;;;25.70;80.60;;;;;;5055216;28;20032;-68
2022/06/06 09:34:39;;;;;;;5.65;3.88;;;25.80;79.30;;;;;;5064264;28;20480;-68
2022/06/06 09:37:13;;;;;;;3.97;3.53;;;25.90;79.50;;;;;;5058414;28;20020;-68
2022/06/06 09:40:21;;;;;;;5.53;3.95;;;25.90;79.50;;;;;;5065821;28;20426;-68
2022/06/06 09:43:06;;;;;;;4.95;4.05;;;26.00;79.20;;;;;;5060665;28;20063;-68
2022/06/06 09:45:39;;;;;;;4.65;3.65;;;26.00;79.90;;;;;;5068195;28;20024;-69
2022/06/06 09:48:42;;;;;;;5.50;3.60;;;26.00;79.40;;;;;;5061995;28;20127;-67
2022/06/06 09:51:11;;;;;;;6.30;3.33;;;26.10;79.20;;;;;;5065544;28;20059;-67
2022/06/06 09:59:55;;;;;;;4.30;3.15;;;26.50;78.30;;;;;;5063895;28;19909;-67
2022/06/06 10:02:52;;;;;;;3.72;3.35;;;26.50;77.10;;;;;;5062278;28;20060;-65
2022/06/06 10:05:59;;;;;;;6.35;3.60;;;26.60;76.40;;;;;;5066770;28;20083;-66
2022/06/06 10:08:46;;;;;;;4.10;3.35;;;26.60;76.60;;;;;;5045793;28;20041;-67
2022/06/06 10:11:58;;;;;;;4.50;3.20;;;26.60;76.10;;;;;;5059840;28;20486;-67
2022/06/06 10:14:43;;;;;;;4.05;3.53;;;26.60;76.20;;;;;;5057153;28;20102;-67
2022/06/06 10:17:31;;;;;;;4.32;3.80;;;26.60;75.90;;;;;;5061749;28;20029;-67
2022/06/06 10:20:35;;;;;;;5.47;4.22;;;26.70;75.70;;;;;;5060032;28;20066;-67
2022/06/06 10:23:35;;;;;;;5.50;4.32;;;26.80;75.70;;;;;;5020182;28;20040;-67
2022/06/06 10:26:09;;;;;;;5.43;4.32;;;26.90;75.40;;;;;;5069615;28;20119;-67
2022/06/06 10:28:46;;;;;;;;;;;26.90;75.20;;;;;;5071684;28;20056;-66
2022/06/06 10:32:07;;;;;;;4.68;3.70;;;27.00;75.40;;;;;;5069947;28;19909;-66
2022/06/06 10:35:13;;;;;;;4.35;3.38;;;27.10;74.30;;;;;;5030632;28;20037;-67
2022/06/06 10:37:48;;;;;;;4.40;3.63;;;27.10;74.40;;;;;;5043014;28;20304;-66
2022/06/06 10:40:39;;;;;;;4.43;3.40;;;27.10;73.50;;;;;;5067962;28;20372;-66
2022/06/06 10:43:14;;;;;;;3.55;2.97;;;27.00;72.80;;;;;;5061952;28;20068;-67
2022/06/06 10:45:48;;;;;;;3.70;3.15;;;27.00;72.40;;;;;;5061852;28;20028;-68
2022/06/06 10:48:27;;;;;;;;;;;27.00;72.30;;;;;;5062716;28;20089;-66
2022/06/06 10:52:04;;;;;;;5.22;3.15;;;26.90;72.80;;;;;;5063358;28;19978;-67
2022/06/06 10:55:02;;;;;;;4.82;2.97;;;26.90;72.40;;;;;;5067825;28;20032;-67
2022/06/06 10:57:55;;;;;;;4.90;3.50;;;26.80;72.30;;;;;;5041816;28;20168;-68
2022/06/06 11:00:29;;;;;;;4.20;3.55;;;26.90;72.60;;;;;;5065209;28;20032;-68
2022/06/06 11:03:35;;;;;;;5.97;3.22;;;27.00;72.70;;;;;;5054688;28;20029;-67
2022/06/06 11:06:26;;;;;;;4.20;3.30;;;27.00;72.80;;;;;;5054820;28;20037;-68
2022/06/06 11:09:26;;;;;;;4.05;3.28;;;27.10;72.50;;;;;;5063065;28;20051;-68
2022/06/06 11:12:04;;;;;;;4.40;3.67;;;27.10;72.20;;;;;;5058491;28;20031;-68
2022/06/06 11:14:32;;;;;;;7.00;3.50;;;27.10;71.60;;;;;;5069406;28;20033;-68
2022/06/06 11:17:35;;;;;;;4.22;2.97;;;27.00;71.20;;;;;;5056575;28;20028;-67
2022/06/06 11:20:21;;;;;;;4.07;3.33;;;26.90;71.70;;;;;;5071797;28;20028;-67
2022/06/06 11:23:12;;;;;;;5.00;3.55;;;27.00;72.30;;;;;;5071099;28;20055;-66
2022/06/06 11:26:23;;;;;;;5.97;3.67;;;27.00;72.10;;;;;;5072323;28;20090;-66
2022/06/06 11:29:11;;;;;;;4.00;3.22;;;27.00;72.10;;;;;;5074313;28;20041;-68
2022/06/06 11:31:50;;;;;;;4.35;3.70;;;27.10;72.30;;;;;;5072402;28;20044;-67
2022/06/06 11:34:54;;;;;;;7.07;4.03;;;27.10;71.30;;;;;;5061936;28;20033;-67
2022/06/06 11:37:50;;;;;;;3.88;3.42;;;27.10;72.10;;;;;;5059934;28;20060;-68
2022/06/06 11:40:21;;;;;;;5.40;3.53;;;27.10;71.50;;;;;;5055187;28;20021;-67
2022/06/06 11:43:12;;;;;;;4.53;3.17;;;27.20;71.50;;;;;;5058246;28;20037;-67
2022/06/06 11:45:50;;;;;;;4.18;3.45;;;27.20;70.90;;;;;;5065038;28;20024;-66
2022/06/06 11:48:41;;;;;;;3.90;3.28;;;27.30;70.80;;;;;;5065878;28;20036;-67
2022/06/06 11:51:41;;;;;;;5.78;3.22;;;27.30;70.30;;;;;;5063097;28;20028;-68
2022/06/06 11:54:40;;;;;;;4.30;3.22;;;27.30;70.70;;;;;;5065483;28;20032;-68
2022/06/06 11:57:17;;;;;;;4.03;3.20;;;27.40;70.70;;;;;;5063546;28;20029;-66
2022/06/06 12:00:11;;;;;;;3.78;3.38;;;27.40;70.30;;;;;;5073798;28;20032;-67
2022/06/06 12:03:06;;;;;;;4.05;3.22;;;27.50;70.80;;;;;;5070585;28;20025;-66
2022/06/06 12:05:52;;;;;;;;;;;27.60;70.90;;;;;;5063643;28;20037;-67
2022/06/06 12:08:32;;;;;;;3.25;2.47;;;27.60;71.10;;;;;;5034716;28;19921;-67
2022/06/06 12:11:23;;;;;;;3.70;2.92;;;27.60;70.00;;;;;;5069077;28;20021;-66
2022/06/06 12:14:05;;;;;;;5.13;3.30;;;27.60;70.60;;;;;;5073746;28;20040;-67
2022/06/06 12:17:09;;;;;;;4.03;3.15;;;27.60;70.70;;;;;;5060093;28;20467;-66
2022/06/06 12:20:06;;;;;;;6.13;3.50;;;27.70;70.70;;;;;;5062973;28;20040;-66
2022/06/06 12:23:07;;;;;;;3.33;2.90;;;27.80;70.80;;;;;;5063614;28;20028;-66
2022/06/06 12:25:48;;;;;;;3.92;3.15;;;28.00;70.20;;;;;;5060911;28;20035;-68
2022/06/06 12:28:32;;;;;;;4.43;2.80;;;28.10;69.90;;;;;;5064541;28;20823;-67
2022/06/06 12:31:12;;;;;;;3.72;3.00;;;28.20;69.30;;;;;;5053738;28;20033;-66
2022/06/06 12:33:50;;;;;;;3.75;2.65;;;28.20;68.80;;;;;;5064126;28;20037;-66
2022/06/06 12:36:29;;;;;;;5.65;2.95;;;28.20;67.70;;;;;;5066506;28;20074;-67
2022/06/06 12:39:15;;;;;;;4.13;3.28;;;28.10;67.70;;;;;;5060310;28;20021;-67
2022/06/06 12:41:58;;;;;;;4.97;3.40;;;27.90;67.50;;;;;;5063273;28;20109;-68
2022/06/06 12:44:39;;;;;;;3.67;3.03;;;27.80;67.40;;;;;;5053099;28;20558;-67
2022/06/06 12:47:26;;;;;;;4.63;3.75;;;27.70;68.30;;;;;;5062193;28;20040;-66
2022/06/06 12:50:27;;;;;;;5.10;3.58;;;27.70;68.10;;;;;;5051900;28;20036;-67
2022/06/06 12:53:15;;;;;;;3.45;2.92;;;27.80;68.20;;;;;;5070495;28;20072;-66
2022/06/06 12:56:23;;;;;;;3.50;2.88;;;28.00;66.60;;;;;;5071226;28;20029;-66
2022/06/06 12:59:06;;;;;;;3.70;3.15;;;28.20;66.80;;;;;;5059903;28;20048;-66
2022/06/06 13:01:53;;;;;;;3.38;3.00;;;28.20;67.20;;;;;;5065967;28;20029;-66
2022/06/06 13:04:46;;;;;;;6.47;3.05;;;28.10;66.40;;;;;;5061088;28;20043;-67
2022/06/06 13:07:23;;;;;;;4.65;3.08;;;28.10;66.80;;;;;;5064253;28;20105;-66
2022/06/06 13:09:49;;;;;;;3.92;3.30;;;28.10;66.80;;;;;;5069485;28;20052;-67
2022/06/06 13:12:48;;;;;;;3.40;3.10;;;28.20;67.40;;;;;;5066744;28;20352;-67
2022/06/06 13:16:00;;;;;;;4.22;2.90;;;28.30;67.60;;;;;;5061697;28;20039;-66
2022/06/06 13:18:37;;;;;;;4.28;3.53;;;28.40;66.00;;;;;;5053921;28;20041;-66
2022/06/06 13:21:29;;;;;;;3.72;2.92;;;28.50;66.50;;;;;;5061327;28;20089;-67
2022/06/06 13:24:31;;;;;;;4.38;2.83;;;28.80;66.90;;;;;;5068132;28;20116;-65
2022/06/06 13:27:26;;;;;;;4.80;3.10;;;28.90;66.50;;;;;;5064200;28;20033;-67
2022/06/06 13:29:51;;;;;;;3.30;2.80;;;29.00;66.20;;;;;;5051856;28;20041;-66
2022/06/06 13:32:17;;;;;;;5.60;2.97;;;29.10;65.70;;;;;;5060920;28;20577;-66
2022/06/06 13:35:04;;;;;;;3.70;2.65;;;29.20;65.60;;;;;;5067948;28;20559;-67
2022/06/06 13:37:42;;;;;;;3.58;2.80;;;29.10;63.60;;;;;;5058594;28;20043;-66
2022/06/06 13:40:26;;;;;;;3.70;2.70;;;29.10;62.60;;;;;;5057611;28;20044;-66
2022/06/06 13:42:55;;;;;;;3.53;2.72;;;28.90;63.70;;;;;;5060690;28;20054;-66
2022/06/06 13:46:12;;;;;;;3.78;3.00;;;28.80;63.50;;;;;;5065908;28;20373;-66
2022/06/06 13:48:45;;;;;;;10.10;3.40;;;28.60;63.50;;;;;;5035015;28;20117;-68
2022/06/06 13:51:30;;;;;;;4.95;2.97;;;28.50;63.80;;;;;;5061202;28;20048;-67
2022/06/06 13:54:02;;;;;;;4.15;3.35;;;28.40;63.70;;;;;;5058864;28;20574;-67
2022/06/06 13:56:52;;;;;;;4.22;2.70;;;28.30;64.60;;;;;;5056448;28;20028;-67
2022/06/06 13:59:43;;;;;;;4.40;3.60;;;28.30;64.90;;;;;;5054937;28;20476;-67
2022/06/06 14:02:48;;;;;;;3.63;3.20;;;28.30;65.80;;;;;;5056855;28;20033;-68
2022/06/06 14:05:19;;;;;;;5.60;3.33;;;28.30;64.90;;;;;;5053772;28;20373;-67
2022/06/06 14:07:57;;;;;;;4.97;3.00;;;28.40;64.60;;;;;;5058398;28;20462;-67
2022/06/06 14:10:37;;;;;;;3.80;3.10;;;28.50;64.00;;;;;;5054193;28;20410;-67
2022/06/06 14:13:24;;;;;;;3.58;2.88;;;28.80;63.00;;;;;;5066120;28;20029;-67
2022/06/06 14:15:52;;;;;;;3.75;3.10;;;28.90;63.10;;;;;;5066208;28;20432;-67
2022/06/06 14:18:28;;;;;;;4.18;2.92;;;29.00;63.30;;;;;;5050907;28;20101;-67